createdAt,value
2022-12-18T00:09:40.027Z,-4.36
2022-12-18T00:19:43.429Z,-4.48
2022-12-18T00:29:48.003Z,-4.58
2022-12-18T00:39:52.185Z,-4.49
2022-12-18T00:49:57.824Z,-4.78
2022-12-18T01:00:00.882Z,-4.55
2022-12-18T01:10:06.853Z,-4.55
2022-12-18T01:20:14.283Z,-4.63
2022-12-18T01:30:19.119Z,-4.81
2022-12-18T01:40:22.152Z,-4.96
2022-12-18T01:50:34.907Z,-4.62
2022-12-18T02:00:38.032Z,-4.27
2022-12-18T02:10:50.700Z,-4.22
2022-12-18T02:21:07.041Z,-4.00
2022-12-18T02:31:16.456Z,-4.00
2022-12-18T02:41:20.931Z,-4.04
2022-12-18T02:51:31.686Z,-3.88
2022-12-18T03:01:45.319Z,-4.07
2022-12-18T03:12:14.411Z,-4.08
2022-12-18T03:22:18.494Z,-4.03
2022-12-18T03:32:31.850Z,-4.22
2022-12-18T03:42:46.068Z,-4.33
2022-12-18T03:52:57.143Z,-4.26
2022-12-18T04:03:02.937Z,-4.24
2022-12-18T04:13:13.803Z,-4.28
2022-12-18T04:23:17.659Z,-4.28
2022-12-18T04:33:22.163Z,-4.24
2022-12-18T04:43:25.309Z,-4.43
2022-12-18T04:53:29.841Z,-4.31
2022-12-18T05:03:33.418Z,-4.35
2022-12-18T05:13:40.145Z,-4.53
2022-12-18T05:23:43.616Z,-4.56
2022-12-18T05:33:48.112Z,-4.65
2022-12-18T05:43:51.252Z,-4.48
2022-12-18T05:53:55.627Z,-4.48
2022-12-18T06:03:58.599Z,-4.33
2022-12-18T06:14:04.403Z,-4.21
2022-12-18T06:24:08.217Z,-4.45
2022-12-18T06:34:12.547Z,-4.37
2022-12-18T06:44:15.623Z,-4.30
2022-12-18T06:54:20.016Z,-4.50
2022-12-18T07:04:23.032Z,-4.33
2022-12-18T07:14:27.692Z,-4.33
2022-12-18T07:24:30.747Z,-4.36
2022-12-18T07:34:35.170Z,-4.26
2022-12-18T07:44:38.600Z,-4.54
2022-12-18T07:54:43.552Z,-4.27
2022-12-18T08:04:46.547Z,-4.39
2022-12-18T08:14:50.833Z,-4.17
2022-12-18T08:24:54.075Z,-4.15
2022-12-18T08:34:58.484Z,-3.94
2022-12-18T08:45:01.404Z,-3.94
2022-12-18T08:55:06.931Z,-3.81
2022-12-18T09:05:10.962Z,-3.65
2022-12-18T09:37:52.628Z,-3.22
2022-12-18T09:47:58.346Z,-3.08
2022-12-18T09:58:08.809Z,-2.95
2022-12-18T10:08:19.472Z,-2.69
2022-12-18T10:18:27.742Z,-2.64
2022-12-18T10:28:32.672Z,-2.54
2022-12-18T10:38:36.967Z,-2.15
2022-12-18T10:48:49.513Z,-2.23
2022-12-18T10:59:01.648Z,-2.14
2022-12-18T11:09:13.177Z,-2.04
2022-12-18T11:19:39.318Z,-1.81
2022-12-18T11:29:46.551Z,-1.78
2022-12-18T11:39:59.304Z,-1.94
2022-12-18T11:50:13.362Z,-1.96
2022-12-18T12:00:20.875Z,-2.07
2022-12-18T12:10:38.379Z,-2.03
2022-12-18T12:20:52.650Z,-2.02
2022-12-18T12:31:09.670Z,-2.01
2022-12-18T12:41:31.284Z,-1.94
2022-12-18T12:51:38.077Z,-1.93
2022-12-18T13:01:55.824Z,-1.66
2022-12-18T13:12:22.358Z,-1.80
2022-12-18T13:22:38.027Z,-1.67
2022-12-18T13:32:41.046Z,-1.80
2022-12-18T13:43:03.187Z,-1.82
2022-12-18T13:53:07.500Z,-1.67
2022-12-18T14:03:22.544Z,-1.88
2022-12-18T14:13:30.087Z,-1.97
2022-12-18T14:23:36.695Z,-1.88
2022-12-18T14:33:40.677Z,-1.85
2022-12-18T14:43:46.851Z,-1.86
2022-12-18T14:53:54.834Z,-2.03
2022-12-18T15:04:01.201Z,-2.04
2022-12-18T15:14:33.909Z,-2.09
2022-12-18T15:24:38.354Z,-1.98
2022-12-18T15:34:41.446Z,-1.99
2022-12-18T15:44:45.908Z,-2.02
2022-12-18T15:55:06.673Z,-1.84
2022-12-18T16:05:18.085Z,-1.89
2022-12-18T16:15:24.444Z,-1.91
2022-12-18T16:25:30.444Z,-1.88
2022-12-18T16:35:33.442Z,-1.96
2022-12-18T16:45:37.464Z,-1.91
2022-12-18T16:55:40.417Z,-2.15
2022-12-18T17:05:48.744Z,-2.07
2022-12-18T17:15:54.556Z,-1.95
2022-12-18T17:26:01.121Z,-1.96
2022-12-18T17:36:04.438Z,-2.17
2022-12-18T17:46:09.137Z,-2.12
2022-12-18T17:56:15.605Z,-2.22
2022-12-18T18:06:20.142Z,-2.05
2022-12-18T18:16:23.156Z,-2.05
2022-12-18T18:26:29.312Z,-2.14
2022-12-18T18:36:32.895Z,-2.01
2022-12-18T18:46:37.247Z,-1.94
2022-12-18T18:57:11.779Z,-1.70
2022-12-18T19:07:04.359Z,-1.88
2022-12-18T19:17:07.440Z,-1.66
2022-12-18T19:27:12.024Z,-1.55
2022-12-18T19:37:15.092Z,-1.58
2022-12-18T19:47:20.564Z,-1.63
2022-12-18T19:57:23.804Z,-1.43
2022-12-18T20:07:28.048Z,-1.51
2022-12-18T20:17:30.867Z,-1.34
2022-12-18T20:27:36.168Z,-1.33
2022-12-18T20:37:39.322Z,-1.39
2022-12-18T20:47:47.497Z,-1.09
2022-12-18T20:57:52.830Z,-1.07
2022-12-18T21:07:57.383Z,-0.99
2022-12-18T21:18:00.383Z,-0.88
2022-12-18T21:28:05.149Z,-0.72
2022-12-18T21:38:09.167Z,-0.88
2022-12-18T21:48:13.596Z,-0.76
2022-12-18T21:58:16.653Z,-0.69
2022-12-18T22:08:20.935Z,-0.59
2022-12-18T22:18:24.052Z,-0.74
2022-12-18T22:28:45.843Z,-0.67
2022-12-18T22:38:48.947Z,-0.49
2022-12-18T22:48:53.673Z,-0.52
2022-12-18T22:58:57.155Z,-0.48
2022-12-18T23:09:02.695Z,-0.38
2022-12-18T23:19:05.740Z,-0.35
2022-12-18T23:29:10.585Z,-0.33
2022-12-18T23:39:19.255Z,-0.18
2022-12-18T23:49:34.187Z,-0.05
2022-12-18T23:59:37.197Z,-0.06
